createdAt,value
2018-08-24T00:01:11.289Z,21.77
2018-08-24T00:03:39.579Z,22.37
2018-08-24T00:06:07.906Z,22.01
2018-08-24T00:08:36.243Z,21.92
2018-08-24T00:11:04.531Z,22.27
2018-08-24T00:13:35.818Z,22.40
2018-08-24T00:16:04.113Z,22.32
2018-08-24T00:18:32.496Z,22.06
2018-08-24T00:21:00.780Z,21.79
2018-08-24T00:23:29.122Z,21.81
2018-08-24T00:25:57.422Z,21.52
2018-08-24T00:28:25.781Z,21.81
2018-08-24T00:30:54.135Z,21.79
2018-08-24T00:33:22.455Z,21.74
2018-08-24T00:35:50.778Z,21.74
2018-08-24T00:38:19.057Z,22.10
2018-08-24T00:40:48.600Z,21.52
2018-08-24T00:43:16.912Z,21.99
2018-08-24T00:45:45.284Z,21.93
2018-08-24T00:48:13.658Z,21.66
2018-08-24T00:50:42.064Z,21.72
2018-08-24T00:53:10.437Z,22.08
2018-08-24T00:55:38.863Z,22.15
2018-08-24T00:58:07.270Z,21.72
2018-08-24T01:00:40.873Z,22.04
2018-08-24T01:03:09.386Z,21.88
2018-08-24T01:05:37.738Z,21.31
2018-08-24T01:08:08.267Z,21.80
2018-08-24T01:10:37.295Z,21.42
2018-08-24T01:13:09.924Z,21.24
2018-08-24T01:15:59.551Z,20.92
2018-08-24T01:18:33.129Z,21.02
2018-08-24T01:21:01.662Z,21.24
2018-08-24T01:23:31.755Z,21.26
2018-08-24T01:26:00.333Z,21.77
2018-08-24T01:28:30.906Z,21.52
2018-08-24T01:31:05.267Z,21.51
2018-08-24T01:33:33.901Z,21.97
2018-08-24T01:36:02.219Z,21.64
2018-08-24T01:38:30.495Z,21.47
2018-08-24T01:40:58.840Z,21.09
2018-08-24T01:43:27.151Z,21.33
2018-08-24T01:46:01.239Z,21.23
2018-08-24T01:48:29.707Z,21.61
2018-08-24T01:50:58.179Z,20.94
2018-08-24T01:53:26.662Z,21.93
2018-08-24T01:55:55.203Z,21.24
2018-08-24T01:58:23.709Z,21.09
2018-08-24T02:00:52.171Z,21.16
2018-08-24T02:03:20.519Z,21.59
2018-08-24T02:05:48.827Z,21.24
2018-08-24T02:08:17.202Z,21.01
2018-08-24T02:10:45.484Z,21.53
2018-08-24T02:13:19.030Z,21.44
2018-08-24T02:15:47.943Z,21.43
2018-08-24T02:18:21.622Z,21.51
2018-08-24T02:23:01.324Z,21.06
2018-08-24T02:25:29.691Z,21.50
2018-08-24T02:27:58.183Z,21.42
2018-08-24T02:30:26.770Z,21.46
2018-08-24T02:32:55.024Z,21.19
2018-08-24T02:35:23.344Z,21.60
2018-08-24T02:37:52.391Z,21.23
2018-08-24T02:40:20.707Z,21.24
2018-08-24T02:42:48.966Z,21.53
2018-08-24T02:45:17.410Z,21.38
2018-08-24T02:47:45.671Z,20.99
2018-08-24T02:50:13.947Z,21.27
2018-08-24T02:52:42.267Z,21.26
2018-08-24T02:55:10.539Z,21.75
2018-08-24T02:57:38.833Z,21.41
2018-08-24T03:00:30.302Z,21.60
2018-08-24T03:02:58.628Z,21.50
2018-08-24T03:05:27.128Z,21.37
2018-08-24T03:07:55.263Z,21.21
2018-08-24T03:10:23.560Z,21.38
2018-08-24T03:12:51.870Z,21.55
2018-08-24T03:15:20.159Z,21.78
2018-08-24T03:17:53.377Z,22.06
2018-08-24T03:20:22.093Z,22.22
2018-08-24T03:22:50.512Z,22.16
2018-08-24T03:25:18.957Z,21.26
2018-08-24T03:27:47.419Z,21.82
2018-08-24T03:30:15.867Z,21.36
2018-08-24T03:32:44.432Z,21.36
2018-08-24T03:35:12.794Z,21.22
2018-08-24T03:37:41.221Z,21.07
2018-08-24T03:40:09.730Z,20.69
2018-08-24T03:42:38.166Z,20.61
2018-08-24T03:45:07.623Z,20.74
2018-08-24T03:47:36.122Z,20.59
2018-08-24T03:50:04.836Z,20.18
2018-08-24T03:52:33.314Z,20.30
2018-08-24T03:55:01.863Z,20.34
2018-08-24T03:57:30.327Z,20.24
2018-08-24T03:59:58.769Z,19.93
2018-08-24T04:02:27.186Z,20.61
2018-08-24T04:04:55.538Z,20.54
2018-08-24T04:07:23.859Z,20.45
2018-08-24T04:09:52.164Z,20.54
2018-08-24T04:12:20.438Z,20.72
2018-08-24T04:14:48.715Z,20.09
2018-08-24T04:17:22.639Z,20.19
2018-08-24T04:19:51.188Z,20.07
2018-08-24T04:22:19.711Z,20.15
2018-08-24T04:24:48.090Z,20.22
2018-08-24T04:27:17.510Z,19.37
2018-08-24T04:29:45.935Z,19.66
2018-08-24T04:32:14.443Z,19.69
2018-08-24T04:34:42.991Z,19.56
2018-08-24T04:37:18.003Z,19.63
2018-08-24T04:39:46.511Z,19.31
2018-08-24T04:42:15.020Z,18.97
2018-08-24T04:44:43.511Z,19.39
2018-08-24T04:47:12.036Z,18.95
2018-08-24T04:49:40.580Z,19.39
2018-08-24T04:52:09.029Z,18.91
2018-08-24T04:54:37.536Z,18.81
2018-08-24T04:57:06.055Z,19.06
2018-08-24T04:59:34.551Z,19.42
2018-08-24T05:02:03.249Z,19.16
2018-08-24T05:04:31.951Z,18.85
2018-08-24T05:07:00.562Z,18.72
2018-08-24T05:09:29.191Z,18.83
2018-08-24T05:11:58.874Z,18.57
2018-08-24T05:14:27.501Z,18.90
2018-08-24T05:16:56.065Z,19.12
2018-08-24T05:19:24.596Z,19.61
2018-08-24T05:21:53.039Z,18.89
2018-08-24T05:24:21.776Z,18.89
2018-08-24T05:26:50.234Z,19.16
2018-08-24T05:29:18.827Z,19.63
2018-08-24T05:31:47.403Z,19.32
2018-08-24T05:34:15.840Z,19.27
2018-08-24T05:36:44.438Z,19.23
2018-08-24T05:39:12.959Z,19.76
2018-08-24T05:41:41.343Z,19.19
2018-08-24T05:44:09.703Z,19.71
2018-08-24T05:46:38.143Z,19.48
2018-08-24T05:49:06.580Z,19.72
2018-08-24T05:51:35.079Z,20.15
2018-08-24T05:54:03.503Z,19.98
2018-08-24T05:56:32.020Z,19.97
2018-08-24T05:59:00.571Z,20.30
2018-08-24T06:01:29.084Z,20.03
2018-08-24T06:03:57.587Z,19.57
2018-08-24T06:06:26.132Z,19.28
2018-08-24T06:08:59.885Z,19.48
2018-08-24T06:11:28.452Z,19.72
2018-08-24T06:13:56.989Z,19.53
2018-08-24T06:16:25.555Z,18.86
2018-08-24T06:18:54.190Z,18.88
2018-08-24T06:21:22.900Z,19.06
2018-08-24T06:23:51.472Z,19.06
2018-08-24T06:26:20.051Z,18.43
2018-08-24T06:28:48.738Z,18.68
2018-08-24T06:31:17.305Z,18.89
2018-08-24T06:33:45.891Z,18.70
2018-08-24T06:36:14.459Z,18.38
2018-08-24T06:38:43.583Z,19.13
2018-08-24T06:41:12.032Z,19.03
2018-08-24T06:43:40.717Z,18.99
2018-08-24T06:46:09.440Z,17.92
2018-08-24T06:48:37.843Z,18.51
2018-08-24T06:51:06.351Z,17.99
2018-08-24T06:53:34.929Z,17.96
2018-08-24T06:56:03.391Z,17.88
2018-08-24T06:58:31.882Z,18.15
2018-08-24T07:01:00.365Z,18.06
2018-08-24T07:03:28.840Z,18.20
2018-08-24T07:05:57.337Z,18.65
2018-08-24T07:08:25.879Z,18.64
2018-08-24T07:10:54.430Z,18.52
2018-08-24T07:13:23.691Z,18.07
2018-08-24T07:15:52.185Z,18.05
2018-08-24T07:18:20.736Z,18.25
2018-08-24T07:20:50.024Z,18.36
2018-08-24T07:23:18.443Z,18.07
2018-08-24T07:25:46.943Z,18.49
2018-08-24T07:28:15.423Z,18.75
2018-08-24T07:30:43.999Z,18.33
2018-08-24T07:33:13.565Z,18.21
2018-08-24T07:35:42.012Z,18.82
2018-08-24T07:38:10.447Z,18.10
2018-08-24T07:40:39.008Z,17.84
2018-08-24T07:43:07.583Z,17.90
2018-08-24T07:45:36.165Z,18.58
2018-08-24T07:48:04.749Z,17.89
2018-08-24T07:50:33.331Z,18.11
2018-08-24T07:53:01.809Z,18.76
2018-08-24T07:55:30.227Z,18.47
2018-08-24T07:57:58.707Z,18.34
2018-08-24T08:00:27.161Z,18.53
2018-08-24T08:02:55.659Z,18.45
2018-08-24T08:05:24.147Z,18.49
2018-08-24T08:07:52.681Z,18.61
2018-08-24T08:10:21.255Z,18.78
2018-08-24T08:12:49.876Z,18.50
2018-08-24T08:15:18.468Z,18.68
2018-08-24T08:17:47.100Z,18.25
2018-08-24T08:20:15.734Z,18.12
2018-08-24T08:22:44.156Z,18.56
2018-08-24T08:25:12.617Z,18.96
2018-08-24T08:27:41.090Z,18.40
2018-08-24T08:30:09.586Z,18.84
2018-08-24T08:32:38.051Z,18.98
2018-08-24T08:35:06.920Z,19.28
2018-08-24T08:37:35.577Z,19.49
2018-08-24T08:40:04.467Z,19.07
2018-08-24T08:42:32.957Z,19.44
2018-08-24T08:45:01.499Z,19.25
2018-08-24T08:47:30.015Z,19.65
2018-08-24T08:49:58.580Z,19.49
2018-08-24T08:52:27.077Z,19.76
2018-08-24T08:54:55.708Z,19.85
2018-08-24T08:57:24.198Z,20.46
2018-08-24T08:59:52.690Z,20.49
2018-08-24T09:02:21.266Z,20.64
2018-08-24T09:04:49.991Z,19.70
2018-08-24T09:07:18.375Z,19.75
2018-08-24T09:09:47.043Z,20.45
2018-08-24T09:12:15.592Z,20.62
2018-08-24T09:14:44.090Z,20.50
2018-08-24T09:17:17.692Z,21.27
2018-08-24T09:19:51.501Z,21.46
2018-08-24T09:22:25.183Z,22.16
2018-08-24T09:24:59.145Z,22.23
2018-08-24T09:27:33.716Z,21.90
2018-08-24T09:30:03.563Z,21.01
2018-08-24T09:32:32.160Z,20.87
2018-08-24T09:35:00.483Z,20.83
2018-08-24T09:37:34.973Z,20.69
2018-08-24T09:40:03.446Z,20.56
2018-08-24T09:42:31.848Z,20.61
2018-08-24T09:45:00.408Z,20.69
2018-08-24T09:47:34.295Z,20.51
2018-08-24T09:50:08.537Z,21.66
2018-08-24T09:52:37.138Z,22.35
2018-08-24T09:55:05.660Z,22.89
2018-08-24T09:57:34.182Z,23.56
2018-08-24T10:00:02.714Z,24.14
2018-08-24T10:02:36.616Z,24.59
2018-08-24T10:05:10.790Z,25.90
2018-08-24T10:07:44.292Z,26.96
2018-08-24T10:10:12.850Z,26.79
2018-08-24T10:12:41.363Z,25.01
2018-08-24T10:15:10.239Z,23.79
2018-08-24T10:17:38.746Z,23.23
2018-08-24T10:20:07.460Z,23.43
2018-08-24T10:22:35.954Z,23.53
2018-08-24T10:25:04.555Z,22.54
2018-08-24T10:27:33.199Z,22.03
2018-08-24T10:30:01.749Z,21.52
2018-08-24T10:32:30.327Z,21.85
2018-08-24T10:34:58.786Z,21.81
2018-08-24T10:37:27.321Z,21.84
2018-08-24T10:39:55.774Z,21.72
2018-08-24T10:42:24.366Z,22.54
2018-08-24T10:44:52.877Z,22.05
2018-08-24T10:47:21.427Z,22.23
2018-08-24T10:49:49.816Z,20.83
2018-08-24T10:52:18.269Z,21.08
2018-08-24T10:54:47.095Z,20.50
2018-08-24T10:57:15.553Z,20.67
2018-08-24T10:59:43.951Z,20.45
2018-08-24T11:02:12.332Z,20.21
2018-08-24T11:04:40.606Z,19.80
2018-08-24T11:07:08.941Z,19.04
2018-08-24T11:09:37.431Z,19.19
2018-08-24T11:12:05.742Z,19.56
2018-08-24T11:14:34.169Z,19.54
2018-08-24T11:17:02.483Z,19.97
2018-08-24T11:19:30.855Z,20.56
2018-08-24T11:21:59.141Z,21.21
2018-08-24T11:24:27.415Z,22.12
2018-08-24T11:26:55.747Z,23.11
2018-08-24T11:29:24.102Z,23.61
2018-08-24T11:31:52.392Z,23.08
2018-08-24T11:34:20.694Z,22.87
2018-08-24T11:36:49.071Z,22.43
2018-08-24T11:39:17.453Z,22.42
2018-08-24T11:41:45.935Z,22.61
2018-08-24T11:44:15.239Z,22.41
2018-08-24T11:46:43.724Z,21.40
2018-08-24T11:49:12.219Z,21.39
2018-08-24T11:51:40.723Z,21.76
2018-08-24T11:54:09.387Z,22.63
2018-08-24T11:59:05.206Z,23.05
2018-08-24T12:01:33.644Z,21.80
2018-08-24T12:04:02.188Z,21.59
2018-08-24T12:06:30.676Z,20.88
2018-08-24T12:08:59.266Z,20.37
2018-08-24T12:11:27.985Z,20.49
2018-08-24T12:13:56.619Z,20.43
2018-08-24T12:16:25.079Z,21.60
2018-08-24T12:18:53.466Z,21.45
2018-08-24T12:21:21.950Z,21.38
2018-08-24T12:23:50.247Z,22.08
2018-08-24T12:26:18.650Z,21.94
2018-08-24T12:28:47.030Z,21.41
2018-08-24T12:31:15.596Z,21.46
2018-08-24T12:33:44.262Z,21.29
2018-08-24T12:36:14.856Z,20.64
2018-08-24T12:38:43.445Z,21.44
2018-08-24T12:41:12.305Z,22.51
2018-08-24T12:43:40.868Z,22.41
2018-08-24T12:46:09.604Z,21.63
2018-08-24T12:48:38.203Z,21.23
2018-08-24T12:51:06.695Z,21.39
2018-08-24T12:53:35.366Z,21.73
2018-08-24T12:56:03.929Z,21.48
2018-08-24T12:58:32.424Z,21.73
2018-08-24T13:01:00.904Z,22.03
2018-08-24T13:03:29.399Z,21.99
2018-08-24T13:05:58.088Z,21.92
2018-08-24T13:08:26.602Z,21.87
2018-08-24T13:10:55.131Z,21.70
2018-08-24T13:13:23.599Z,21.30
2018-08-24T13:15:52.066Z,21.47
2018-08-24T13:18:20.744Z,21.08
2018-08-24T13:20:49.293Z,21.40
2018-08-24T13:23:17.860Z,21.56
2018-08-24T13:25:46.494Z,21.94
2018-08-24T13:28:14.989Z,21.91
2018-08-24T13:30:45.737Z,21.94
2018-08-24T13:33:14.223Z,21.61
2018-08-24T13:35:42.752Z,21.67
2018-08-24T13:38:11.135Z,20.67
2018-08-24T13:40:39.812Z,20.72
2018-08-24T13:43:08.961Z,21.50
2018-08-24T13:45:37.442Z,21.87
2018-08-24T13:48:06.115Z,21.99
2018-08-24T13:50:34.667Z,21.66
2018-08-24T13:53:03.258Z,21.58
2018-08-24T13:55:32.130Z,21.82
2018-08-24T13:58:00.810Z,21.93
2018-08-24T14:00:29.323Z,22.38
2018-08-24T14:02:58.027Z,22.46
2018-08-24T14:05:26.778Z,22.43
2018-08-24T14:07:55.206Z,22.19
2018-08-24T14:10:23.738Z,21.80
2018-08-24T14:12:53.139Z,21.70
2018-08-24T14:15:21.588Z,22.04
2018-08-24T14:17:52.813Z,21.67
2018-08-24T14:20:22.251Z,21.73
2018-08-24T14:22:50.758Z,23.13
2018-08-24T14:25:19.636Z,22.34
2018-08-24T14:27:48.332Z,22.20
2018-08-24T14:30:16.843Z,22.24
2018-08-24T14:32:45.187Z,22.16
2018-08-24T14:35:13.724Z,21.40
2018-08-24T14:37:42.646Z,21.60
2018-08-24T14:40:11.142Z,21.56
2018-08-24T14:42:39.636Z,21.26
2018-08-24T14:45:08.075Z,21.96
2018-08-24T14:47:36.553Z,22.05
2018-08-24T14:50:05.219Z,21.86
2018-08-24T14:52:33.703Z,21.95
2018-08-24T14:55:02.237Z,21.69
2018-08-24T14:57:30.699Z,22.22
2018-08-24T14:59:59.221Z,22.22
2018-08-24T15:02:27.663Z,22.19
2018-08-24T15:04:56.138Z,22.32
2018-08-24T15:07:24.618Z,22.50
2018-08-24T15:09:53.085Z,22.36
2018-08-24T15:12:21.544Z,21.96
2018-08-24T15:14:50.008Z,22.30
2018-08-24T15:17:18.466Z,21.45
2018-08-24T15:19:46.824Z,21.07
2018-08-24T15:22:15.191Z,21.51
2018-08-24T15:24:43.539Z,21.66
2018-08-24T15:27:11.915Z,21.87
2018-08-24T15:29:40.407Z,22.17
2018-08-24T15:32:09.726Z,21.87
2018-08-24T15:34:38.160Z,21.38
2018-08-24T15:37:06.540Z,21.42
2018-08-24T15:39:34.975Z,21.63
2018-08-24T15:42:03.776Z,20.77
2018-08-24T15:44:32.312Z,21.04
2018-08-24T15:47:01.077Z,21.21
2018-08-24T15:49:29.832Z,21.30
2018-08-24T15:51:58.343Z,20.68
2018-08-24T15:54:28.092Z,20.93
2018-08-24T15:56:56.571Z,20.98
2018-08-24T15:59:26.185Z,21.25
2018-08-24T16:01:54.701Z,21.31
2018-08-24T16:04:23.243Z,20.65
2018-08-24T16:06:52.751Z,20.55
2018-08-24T16:09:21.268Z,20.71
2018-08-24T16:11:49.815Z,21.05
2018-08-24T16:14:18.443Z,21.35
2018-08-24T16:16:47.272Z,21.16
2018-08-24T16:19:15.807Z,21.16
2018-08-24T16:21:44.523Z,21.09
2018-08-24T16:24:12.940Z,21.34
2018-08-24T16:26:41.451Z,21.13
2018-08-24T16:29:09.879Z,21.13
2018-08-24T16:31:38.453Z,20.44
2018-08-24T16:34:06.965Z,20.57
2018-08-24T16:36:35.447Z,21.05
2018-08-24T16:39:04.103Z,21.15
2018-08-24T16:41:32.368Z,20.99
2018-08-24T16:44:00.698Z,20.76
2018-08-24T16:46:29.182Z,20.78
2018-08-24T16:48:57.447Z,20.57
2018-08-24T16:51:25.801Z,19.90
2018-08-24T16:53:54.063Z,20.53
2018-08-24T16:56:22.560Z,20.87
2018-08-24T16:58:51.199Z,20.77
2018-08-24T17:01:19.631Z,20.63
2018-08-24T17:03:48.038Z,20.16
2018-08-24T17:06:16.348Z,20.35
2018-08-24T17:08:45.249Z,20.48
2018-08-24T17:11:13.530Z,20.48
2018-08-24T17:13:41.822Z,20.39
2018-08-24T17:16:10.212Z,20.53
2018-08-24T17:18:38.564Z,20.78
2018-08-24T17:21:06.862Z,20.59
2018-08-24T17:23:35.147Z,20.33
2018-08-24T17:26:03.437Z,20.37
2018-08-24T17:28:32.050Z,20.58
2018-08-24T17:31:00.611Z,20.12
2018-08-24T17:33:29.180Z,20.17
2018-08-24T17:35:57.461Z,20.18
2018-08-24T17:38:25.899Z,19.66
2018-08-24T17:40:55.130Z,19.87
2018-08-24T17:43:23.443Z,20.37
2018-08-24T17:45:51.727Z,19.78
2018-08-24T17:48:20.165Z,19.79
2018-08-24T17:50:49.214Z,19.78
2018-08-24T17:53:18.331Z,19.67
2018-08-24T17:58:28.415Z,19.26
2018-08-24T18:00:56.905Z,19.20
2018-08-24T18:03:25.530Z,19.10
2018-08-24T18:05:55.092Z,19.06
2018-08-24T18:08:23.720Z,18.63
2018-08-24T18:10:52.544Z,18.99
2018-08-24T18:13:21.189Z,18.75
2018-08-24T18:15:49.868Z,18.91
2018-08-24T18:18:18.342Z,18.71
2018-08-24T18:20:46.771Z,18.51
2018-08-24T18:23:15.228Z,18.61
2018-08-24T18:25:43.623Z,18.60
2018-08-24T18:28:12.112Z,19.00
2018-08-24T18:30:41.454Z,19.10
2018-08-24T18:33:09.922Z,19.01
2018-08-24T18:35:38.364Z,18.90
2018-08-24T18:38:07.824Z,19.00
2018-08-24T18:40:36.265Z,18.43
2018-08-24T18:43:04.943Z,18.18
2018-08-24T18:45:33.583Z,18.32
2018-08-24T18:48:02.463Z,18.30
2018-08-24T18:50:34.596Z,18.72
2018-08-24T18:53:04.291Z,18.57
2018-08-24T18:55:33.298Z,18.29
2018-08-24T18:58:01.914Z,17.96
2018-08-24T19:00:30.339Z,18.20
2018-08-24T19:02:58.661Z,18.26
2018-08-24T19:05:30.703Z,18.40
2018-08-24T19:08:04.516Z,17.99
2018-08-24T19:10:37.531Z,18.17
2018-08-24T19:13:05.803Z,18.76
2018-08-24T19:15:34.447Z,18.39
2018-08-24T19:18:08.277Z,18.12
2018-08-24T19:20:41.988Z,18.63
2018-08-24T19:23:10.613Z,18.39
2018-08-24T19:25:39.367Z,18.54
2018-08-24T19:28:13.230Z,18.71
2018-08-24T19:30:43.503Z,18.76
2018-08-24T19:33:11.973Z,18.82
2018-08-24T19:35:42.349Z,18.98
2018-08-24T19:38:10.795Z,18.42
2018-08-24T19:40:44.456Z,18.69
2018-08-24T19:43:12.756Z,18.57
2018-08-24T19:45:41.259Z,18.62
2018-08-24T19:48:14.978Z,18.60
2018-08-24T19:50:43.283Z,18.51
2018-08-24T19:53:12.076Z,18.53
2018-08-24T19:55:41.448Z,18.44
2018-08-24T19:58:15.114Z,18.35
2018-08-24T20:00:44.609Z,18.30
2018-08-24T20:03:12.915Z,18.25
2018-08-24T20:05:41.262Z,18.05
2018-08-24T20:08:15.969Z,18.12
2018-08-24T20:10:44.392Z,18.27
2018-08-24T20:13:12.941Z,18.39
2018-08-24T20:15:46.595Z,18.23
2018-08-24T20:20:49.331Z,18.11
2018-08-24T20:23:17.806Z,17.66
2018-08-24T20:25:46.191Z,17.60
2018-08-24T20:28:14.642Z,17.52
2018-08-24T20:30:43.213Z,17.23
2018-08-24T20:33:11.528Z,17.13
2018-08-24T20:35:42.245Z,17.25
2018-08-24T20:38:11.825Z,17.46
2018-08-24T20:40:40.140Z,17.60
2018-08-24T20:43:08.510Z,17.50
2018-08-24T20:45:44.702Z,17.29
2018-08-24T20:48:12.985Z,17.32
2018-08-24T20:50:41.375Z,17.06
2018-08-24T20:53:14.674Z,16.82
2018-08-24T20:55:44.967Z,16.91
2018-08-24T20:58:13.616Z,16.49
2018-08-24T21:00:42.291Z,16.58
2018-08-24T21:03:13.804Z,16.58
2018-08-24T21:05:44.391Z,16.59
2018-08-24T21:08:12.788Z,16.43
2018-08-24T21:10:41.359Z,16.67
2018-08-24T21:13:12.730Z,16.72
2018-08-24T21:15:41.168Z,16.66
2018-08-24T21:18:09.865Z,16.47
2018-08-24T21:20:39.182Z,16.05
2018-08-24T21:23:09.167Z,15.95
2018-08-24T21:25:37.977Z,15.87
2018-08-24T21:28:09.992Z,15.71
2018-08-24T21:30:38.596Z,15.80
2018-08-24T21:33:07.010Z,15.90
2018-08-24T21:35:35.467Z,15.92
2018-08-24T21:40:50.923Z,16.05
2018-08-24T21:43:19.271Z,15.88
2018-08-24T21:45:47.828Z,15.93
2018-08-24T21:48:16.142Z,15.99
2018-08-24T21:50:44.531Z,15.84
2018-08-24T21:53:13.054Z,15.77
2018-08-24T21:55:41.482Z,15.75
2018-08-24T21:58:09.980Z,15.75
2018-08-24T22:00:42.533Z,15.65
2018-08-24T22:03:12.481Z,15.37
2018-08-24T22:05:41.217Z,15.19
2018-08-24T22:08:09.766Z,15.27
2018-08-24T22:10:38.293Z,15.26
2018-08-24T22:13:06.828Z,15.12
2018-08-24T22:15:35.556Z,15.31
2018-08-24T22:18:04.091Z,15.55
2018-08-24T22:20:32.547Z,15.75
2018-08-24T22:23:01.005Z,16.30
2018-08-24T22:25:29.422Z,16.12
2018-08-24T22:27:57.876Z,16.20
2018-08-24T22:30:26.309Z,16.15
2018-08-24T22:32:54.654Z,16.11
2018-08-24T22:35:23.093Z,16.04
2018-08-24T22:37:51.383Z,16.17
2018-08-24T22:40:19.697Z,16.08
2018-08-24T22:42:47.967Z,16.36
2018-08-24T22:45:16.264Z,16.13
2018-08-24T22:47:44.564Z,16.57
2018-08-24T22:50:12.927Z,16.06
2018-08-24T22:52:41.472Z,16.36
2018-08-24T22:55:10.353Z,16.31
2018-08-24T22:57:38.743Z,16.37
2018-08-24T23:00:07.188Z,16.48
2018-08-24T23:02:35.576Z,16.35
2018-08-24T23:05:03.851Z,16.26
2018-08-24T23:07:35.108Z,16.18
2018-08-24T23:10:03.472Z,16.15
2018-08-24T23:12:31.795Z,16.18
2018-08-24T23:15:00.106Z,16.14
2018-08-24T23:17:28.405Z,16.47
2018-08-24T23:19:56.799Z,16.24
2018-08-24T23:22:25.117Z,16.41
2018-08-24T23:24:53.384Z,16.44
2018-08-24T23:27:21.694Z,16.47
2018-08-24T23:29:50.090Z,16.36
2018-08-24T23:32:18.552Z,16.60
2018-08-24T23:34:47.003Z,16.52
2018-08-24T23:37:15.507Z,16.15
2018-08-24T23:39:43.901Z,16.48
2018-08-24T23:42:12.272Z,16.08
2018-08-24T23:44:40.795Z,15.92
2018-08-24T23:47:09.176Z,15.73
2018-08-24T23:49:38.578Z,15.81
2018-08-24T23:52:07.079Z,16.09
2018-08-24T23:54:35.551Z,15.77
2018-08-24T23:57:04.026Z,15.65
2018-08-24T23:59:32.616Z,15.46
